sensor_id;sensor_type;location;lat;lon;timestamp;pressure;altitude;pressure_sealevel;temperature;humidity
80116;BME280;69423;47.608;19.366;2024-02-28T00:00:15;98907.00;;;9.52;95.75
80116;BME280;69423;47.608;19.366;2024-02-28T00:00:46;98887.34;;;9.53;95.63
80116;BME280;69423;47.608;19.366;2024-02-28T00:01:17;98908.63;;;9.53;95.84
80116;BME280;69423;47.608;19.366;2024-02-28T00:01:52;98905.53;;;9.50;95.73
80116;BME280;69423;47.608;19.366;2024-02-28T00:02:23;98895.06;;;9.48;95.66
80116;BME280;69423;47.608;19.366;2024-02-28T00:02:54;98897.72;;;9.48;96.52
80116;BME280;69423;47.608;19.366;2024-02-28T00:03:25;98895.69;;;9.50;96.36
80116;BME280;69423;47.608;19.366;2024-02-28T00:03:56;98893.03;;;9.50;96.74
80116;BME280;69423;47.608;19.366;2024-02-28T00:04:27;98901.03;;;9.50;96.47
80116;BME280;69423;47.608;19.366;2024-02-28T00:04:58;98897.72;;;9.48;95.93
80116;BME280;69423;47.608;19.366;2024-02-28T00:05:30;98895.22;;;9.47;96.71
80116;BME280;69423;47.608;19.366;2024-02-28T00:06:01;98898.69;;;9.47;96.84
80116;BME280;69423;47.608;19.366;2024-02-28T00:06:32;98899.56;;;9.48;96.63
80116;BME280;69423;47.608;19.366;2024-02-28T00:07:04;98903.38;;;9.45;96.53
80116;BME280;69423;47.608;19.366;2024-02-28T00:07:35;98893.09;;;9.42;96.46
80116;BME280;69423;47.608;19.366;2024-02-28T00:08:06;98890.59;;;9.41;96.39
80116;BME280;69423;47.608;19.366;2024-02-28T00:08:37;98895.94;;;9.41;96.55
80116;BME280;69423;47.608;19.366;2024-02-28T00:09:08;98896.75;;;9.41;96.50
80116;BME280;69423;47.608;19.366;2024-02-28T00:09:39;98889.78;;;9.40;96.53
80116;BME280;69423;47.608;19.366;2024-02-28T00:10:10;98890.59;;;9.41;96.79
80116;BME280;69423;47.608;19.366;2024-02-28T00:10:41;98891.44;;;9.41;96.44
80116;BME280;69423;47.608;19.366;2024-02-28T00:11:12;98884.94;;;9.44;96.14
80116;BME280;69423;47.608;19.366;2024-02-28T00:11:43;98898.59;;;9.41;96.15
80116;BME280;69423;47.608;19.366;2024-02-28T00:12:18;98892.63;;;9.39;96.92
80116;BME280;69423;47.608;19.366;2024-02-28T00:12:49;98893.44;;;9.39;97.24
80116;BME280;69423;47.608;19.366;2024-02-28T00:13:20;98896.28;;;9.38;97.42
80116;BME280;69423;47.608;19.366;2024-02-28T00:13:53;98884.81;;;9.37;97.56
80116;BME280;69423;47.608;19.366;2024-02-28T00:14:24;98894.50;;;9.30;97.67
80116;BME280;69423;47.608;19.366;2024-02-28T00:14:55;98888.38;;;9.29;97.71
80116;BME280;69423;47.608;19.366;2024-02-28T00:15:26;98888.81;;;9.33;97.65
80116;BME280;69423;47.608;19.366;2024-02-28T00:15:57;98891.31;;;9.35;97.92
80116;BME280;69423;47.608;19.366;2024-02-28T00:16:28;98892.97;;;9.36;97.37
80116;BME280;69423;47.608;19.366;2024-02-28T00:16:59;98889.47;;;9.35;97.96
80116;BME280;69423;47.608;19.366;2024-02-28T00:17:30;98893.97;;;9.35;97.79
80116;BME280;69423;47.608;19.366;2024-02-28T00:18:04;98893.81;;;9.36;98.20
80116;BME280;69423;47.608;19.366;2024-02-28T00:18:35;98898.31;;;9.36;97.02
80116;BME280;69423;47.608;19.366;2024-02-28T00:19:07;98889.66;;;9.34;96.32
80116;BME280;69423;47.608;19.366;2024-02-28T00:19:38;98895.09;;;9.40;95.64
80116;BME280;69423;47.608;19.366;2024-02-28T00:20:09;98898.25;;;9.44;95.06
80116;BME280;69423;47.608;19.366;2024-02-28T00:20:40;98885.59;;;9.46;95.01
80116;BME280;69423;47.608;19.366;2024-02-28T00:21:11;98884.09;;;9.43;94.12
80116;BME280;69423;47.608;19.366;2024-02-28T00:21:42;98895.38;;;9.45;94.13
80116;BME280;69423;47.608;19.366;2024-02-28T00:22:13;98889.06;;;9.46;94.54
80116;BME280;69423;47.608;19.366;2024-02-28T00:22:44;98892.72;;;9.45;94.32
80116;BME280;69423;47.608;19.366;2024-02-28T00:23:16;98896.91;;;9.48;94.50
80116;BME280;69423;47.608;19.366;2024-02-28T00:23:47;98894.41;;;9.46;95.16
80116;BME280;69423;47.608;19.366;2024-02-28T00:24:18;98893.59;;;9.46;94.50
80116;BME280;69423;47.608;19.366;2024-02-28T00:24:49;98892.38;;;9.48;94.57
80116;BME280;69423;47.608;19.366;2024-02-28T00:25:20;98894.69;;;9.51;94.92
80116;BME280;69423;47.608;19.366;2024-02-28T00:25:51;98890.84;;;9.54;94.31
80116;BME280;69423;47.608;19.366;2024-02-28T00:26:22;98892.66;;;9.53;94.61
80116;BME280;69423;47.608;19.366;2024-02-28T00:26:53;98897.19;;;9.53;94.94
80116;BME280;69423;47.608;19.366;2024-02-28T00:27:24;98889.56;;;9.50;95.21
80116;BME280;69423;47.608;19.366;2024-02-28T00:27:55;98890.56;;;9.49;95.14
80116;BME280;69423;47.608;19.366;2024-02-28T00:28:26;98894.03;;;9.49;95.50
80116;BME280;69423;47.608;19.366;2024-02-28T00:28:57;98890.06;;;9.45;96.25
80116;BME280;69423;47.608;19.366;2024-02-28T00:29:28;98889.41;;;9.43;96.80
80116;BME280;69423;47.608;19.366;2024-02-28T00:29:59;98891.25;;;9.43;95.88
80116;BME280;69423;47.608;19.366;2024-02-28T00:30:30;98889.06;;;9.46;96.08
80116;BME280;69423;47.608;19.366;2024-02-28T00:31:02;98884.94;;;9.44;95.81
80116;BME280;69423;47.608;19.366;2024-02-28T00:31:33;98892.06;;;9.43;95.77
80116;BME280;69423;47.608;19.366;2024-02-28T00:32:05;98883.75;;;9.46;95.03
80116;BME280;69423;47.608;19.366;2024-02-28T00:32:36;98891.75;;;9.46;95.68
80116;BME280;69423;47.608;19.366;2024-02-28T00:33:07;98884.75;;;9.45;95.55
80116;BME280;69423;47.608;19.366;2024-02-28T00:33:38;98890.72;;;9.47;95.18
80116;BME280;69423;47.608;19.366;2024-02-28T00:34:09;98890.91;;;9.46;95.22
80116;BME280;69423;47.608;19.366;2024-02-28T00:34:41;98886.25;;;9.48;95.22
80116;BME280;69423;47.608;19.366;2024-02-28T00:35:12;98887.72;;;9.50;95.26
80116;BME280;69423;47.608;19.366;2024-02-28T00:35:44;98888.06;;;9.47;95.28
80116;BME280;69423;47.608;19.366;2024-02-28T00:36:15;98889.06;;;9.46;95.03
80116;BME280;69423;47.608;19.366;2024-02-28T00:36:46;98895.22;;;9.47;95.10
80116;BME280;69423;47.608;19.366;2024-02-28T00:37:17;98887.25;;;9.47;94.93
80116;BME280;69423;47.608;19.366;2024-02-28T00:37:48;98896.91;;;9.48;95.09
80116;BME280;69423;47.608;19.366;2024-02-28T00:38:19;98893.22;;;9.49;94.61
80116;BME280;69423;47.608;19.366;2024-02-28T00:38:50;98892.03;;;9.51;94.76
80116;BME280;69423;47.608;19.366;2024-02-28T00:39:21;98894.34;;;9.55;94.79
80116;BME280;69423;47.608;19.366;2024-02-28T00:39:52;98898.00;;;9.53;94.51
80116;BME280;69423;47.608;19.366;2024-02-28T00:40:23;98899.03;;;9.52;94.47
80116;BME280;69423;47.608;19.366;2024-02-28T00:40:56;98893.22;;;9.49;94.32
80116;BME280;69423;47.608;19.366;2024-02-28T00:41:27;98894.41;;;9.46;94.77
80116;BME280;69423;47.608;19.366;2024-02-28T00:41:58;98891.91;;;9.45;94.80
80116;BME280;69423;47.608;19.366;2024-02-28T00:42:29;98898.06;;;9.45;94.69
80116;BME280;69423;47.608;19.366;2024-02-28T00:43:00;98900.91;;;9.44;95.13
80116;BME280;69423;47.608;19.366;2024-02-28T00:43:31;98901.72;;;9.44;95.28
80116;BME280;69423;47.608;19.366;2024-02-28T00:44:03;98897.22;;;9.45;94.81
80116;BME280;69423;47.608;19.366;2024-02-28T00:44:34;98898.06;;;9.45;94.90
80116;BME280;69423;47.608;19.366;2024-02-28T00:45:05;98900.06;;;9.43;94.63
80116;BME280;69423;47.608;19.366;2024-02-28T00:45:36;98898.41;;;9.42;95.42
80116;BME280;69423;47.608;19.366;2024-02-28T00:46:07;98900.78;;;9.37;95.46
80116;BME280;69423;47.608;19.366;2024-02-28T00:46:42;98902.78;;;9.35;96.08
80116;BME280;69423;47.608;19.366;2024-02-28T00:47:13;98897.81;;;9.32;96.30
80116;BME280;69423;47.608;19.366;2024-02-28T00:47:44;98891.47;;;9.33;96.41
80116;BME280;69423;47.608;19.366;2024-02-28T00:48:16;98892.13;;;9.35;96.23
80116;BME280;69423;47.608;19.366;2024-02-28T00:48:47;98898.66;;;9.32;95.85
80116;BME280;69423;47.608;19.366;2024-02-28T00:49:18;98894.34;;;9.31;95.89
80116;BME280;69423;47.608;19.366;2024-02-28T00:49:49;98899.47;;;9.33;95.41
80116;BME280;69423;47.608;19.366;2024-02-28T00:50:20;98892.97;;;9.36;95.33
80116;BME280;69423;47.608;19.366;2024-02-28T00:50:51;98897.44;;;9.35;95.00
80116;BME280;69423;47.608;19.366;2024-02-28T00:51:22;98888.81;;;9.33;95.08
80116;BME280;69423;47.608;19.366;2024-02-28T00:51:53;98891.47;;;9.33;94.98
80116;BME280;69423;47.608;19.366;2024-02-28T00:52:24;98898.16;;;9.29;95.36
80116;BME280;69423;47.608;19.366;2024-02-28T00:52:56;98892.00;;;9.28;95.50
80116;BME280;69423;47.608;19.366;2024-02-28T00:53:27;98892.84;;;9.29;95.22
80116;BME280;69423;47.608;19.366;2024-02-28T00:53:58;98888.38;;;9.29;95.16
80116;BME280;69423;47.608;19.366;2024-02-28T00:54:29;98891.19;;;9.28;94.75
80116;BME280;69423;47.608;19.366;2024-02-28T00:55:00;98899.19;;;9.28;95.02
80116;BME280;69423;47.608;19.366;2024-02-28T00:55:31;98901.47;;;9.31;95.08
80116;BME280;69423;47.608;19.366;2024-02-28T00:56:02;98902.16;;;9.25;95.40
80116;BME280;69423;47.608;19.366;2024-02-28T00:56:34;98902.00;;;9.26;95.45
80116;BME280;69423;47.608;19.366;2024-02-28T00:57:05;98907.31;;;9.26;95.67
80116;BME280;69423;47.608;19.366;2024-02-28T00:57:36;98916.13;;;9.27;94.96
80116;BME280;69423;47.608;19.366;2024-02-28T00:58:07;98900.03;;;9.20;95.48
80116;BME280;69423;47.608;19.366;2024-02-28T00:58:38;98905.72;;;9.17;95.15
80116;BME280;69423;47.608;19.366;2024-02-28T00:59:09;98907.75;;;9.15;95.79
80116;BME280;69423;47.608;19.366;2024-02-28T00:59:43;98909.22;;;9.18;95.68
80116;BME280;69423;47.608;19.366;2024-02-28T01:00:15;98913.53;;;9.19;95.70
80116;BME280;69423;47.608;19.366;2024-02-28T01:00:47;98904.53;;;9.20;95.25
80116;BME280;69423;47.608;19.366;2024-02-28T01:01:18;98902.53;;;9.22;94.99
80116;BME280;69423;47.608;19.366;2024-02-28T01:01:49;98906.19;;;9.21;95.20
80116;BME280;69423;47.608;19.366;2024-02-28T01:02:21;98903.34;;;9.22;95.25
80116;BME280;69423;47.608;19.366;2024-02-28T01:02:52;98910.69;;;9.20;95.66
80116;BME280;69423;47.608;19.366;2024-02-28T01:03:23;98908.38;;;9.17;95.69
80116;BME280;69423;47.608;19.366;2024-02-28T01:03:54;98912.69;;;9.18;95.68
80116;BME280;69423;47.608;19.366;2024-02-28T01:04:25;98914.53;;;9.18;95.22
80116;BME280;69423;47.608;19.366;2024-02-28T01:04:56;98907.75;;;9.15;95.25
80116;BME280;69423;47.608;19.366;2024-02-28T01:05:27;98902.41;;;9.15;95.61
80116;BME280;69423;47.608;19.366;2024-02-28T01:05:58;98911.88;;;9.18;95.75
80116;BME280;69423;47.608;19.366;2024-02-28T01:06:31;98906.06;;;9.14;96.14
80116;BME280;69423;47.608;19.366;2024-02-28T01:07:02;98911.59;;;9.13;95.96
80116;BME280;69423;47.608;19.366;2024-02-28T01:07:34;98909.75;;;9.13;95.85
80116;BME280;69423;47.608;19.366;2024-02-28T01:08:05;98901.28;;;9.09;95.79
80116;BME280;69423;47.608;19.366;2024-02-28T01:08:36;98906.75;;;9.08;95.66
80116;BME280;69423;47.608;19.366;2024-02-28T01:09:07;98912.94;;;9.08;95.76
80116;BME280;69423;47.608;19.366;2024-02-28T01:09:38;98908.59;;;9.07;95.75
80116;BME280;69423;47.608;19.366;2024-02-28T01:10:09;98911.25;;;9.07;95.84
80116;BME280;69423;47.608;19.366;2024-02-28T01:10:41;98910.44;;;9.07;95.90
80116;BME280;69423;47.608;19.366;2024-02-28T01:11:12;98909.63;;;9.06;95.94
80116;BME280;69423;47.608;19.366;2024-02-28T01:11:43;98910.44;;;9.07;95.60
80116;BME280;69423;47.608;19.366;2024-02-28T01:12:14;98909.78;;;9.05;95.94
80116;BME280;69423;47.608;19.366;2024-02-28T01:12:45;98904.63;;;9.03;95.97
80116;BME280;69423;47.608;19.366;2024-02-28T01:13:16;98915.28;;;9.03;96.24
80116;BME280;69423;47.608;19.366;2024-02-28T01:13:49;98912.97;;;9.00;95.89
80116;BME280;69423;47.608;19.366;2024-02-28T01:14:20;98913.63;;;9.02;96.15
80116;BME280;69423;47.608;19.366;2024-02-28T01:14:51;98913.25;;;9.05;96.18
80116;BME280;69423;47.608;19.366;2024-02-28T01:15:22;98909.94;;;9.03;96.02
80116;BME280;69423;47.608;19.366;2024-02-28T01:15:53;98922.25;;;9.04;95.88
80116;BME280;69423;47.608;19.366;2024-02-28T01:16:24;98914.44;;;9.03;95.83
80116;BME280;69423;47.608;19.366;2024-02-28T01:16:56;98908.31;;;9.02;96.00
80116;BME280;69423;47.608;19.366;2024-02-28T01:17:27;98913.63;;;9.02;95.89
80116;BME280;69423;47.608;19.366;2024-02-28T01:17:58;98919.13;;;9.01;95.63
80116;BME280;69423;47.608;19.366;2024-02-28T01:18:29;98919.28;;;8.99;96.22
80116;BME280;69423;47.608;19.366;2024-02-28T01:19:01;98917.28;;;9.01;95.87
80116;BME280;69423;47.608;19.366;2024-02-28T01:19:33;98920.75;;;9.02;96.18
80116;BME280;69423;47.608;19.366;2024-02-28T01:20:06;98913.97;;;8.99;96.12
80116;BME280;69423;47.608;19.366;2024-02-28T01:20:38;98919.28;;;8.99;95.88
80116;BME280;69423;47.608;19.366;2024-02-28T01:21:09;98915.16;;;8.97;96.00
80116;BME280;69423;47.608;19.366;2024-02-28T01:21:40;98913.31;;;8.97;96.24
80116;BME280;69423;47.608;19.366;2024-02-28T01:22:11;98921.28;;;8.97;96.02
80116;BME280;69423;47.608;19.366;2024-02-28T01:22:43;98926.59;;;8.97;95.77
80116;BME280;69423;47.608;19.366;2024-02-28T01:23:14;98924.31;;;8.94;96.02
80116;BME280;69423;47.608;19.366;2024-02-28T01:23:45;98912.16;;;8.91;96.19
80116;BME280;69423;47.608;19.366;2024-02-28T01:24:16;98920.78;;;8.94;96.27
80116;BME280;69423;47.608;19.366;2024-02-28T01:24:47;98916.78;;;8.98;96.10
80116;BME280;69423;47.608;19.366;2024-02-28T01:25:18;98921.28;;;8.97;95.90
80116;BME280;69423;47.608;19.366;2024-02-28T01:25:49;98928.59;;;8.95;96.03
80116;BME280;69423;47.608;19.366;2024-02-28T01:26:20;98923.44;;;8.94;96.12
80116;BME280;69423;47.608;19.366;2024-02-28T01:26:52;98925.66;;;8.90;95.98
80116;BME280;69423;47.608;19.366;2024-02-28T01:27:23;98927.94;;;8.93;96.16
80116;BME280;69423;47.608;19.366;2024-02-28T01:27:56;98922.31;;;8.96;96.07
80116;BME280;69423;47.608;19.366;2024-02-28T01:28:28;98926.97;;;8.94;95.70
80116;BME280;69423;47.608;19.366;2024-02-28T01:28:59;98922.47;;;8.95;95.80
80116;BME280;69423;47.608;19.366;2024-02-28T01:29:30;98919.31;;;8.91;95.50
80116;BME280;69423;47.608;19.366;2024-02-28T01:30:02;98912.53;;;8.88;96.15
80116;BME280;69423;47.608;19.366;2024-02-28T01:30:33;98910.69;;;8.89;96.06
80116;BME280;69423;47.608;19.366;2024-02-28T01:31:04;98912.53;;;8.88;96.35
80116;BME280;69423;47.608;19.366;2024-02-28T01:31:36;98918.31;;;8.92;96.42
80116;BME280;69423;47.608;19.366;2024-02-28T01:32:07;98919.16;;;8.93;96.02
80116;BME280;69423;47.608;19.366;2024-02-28T01:32:38;98912.53;;;8.88;96.34
80116;BME280;69423;47.608;19.366;2024-02-28T01:33:09;98913.34;;;8.89;95.96
80116;BME280;69423;47.608;19.366;2024-02-28T01:33:40;98907.38;;;8.87;96.01
80116;BME280;69423;47.608;19.366;2024-02-28T01:34:11;98921.16;;;8.90;96.26
80116;BME280;69423;47.608;19.366;2024-02-28T01:34:42;98911.88;;;8.86;96.17
80116;BME280;69423;47.608;19.366;2024-02-28T01:35:13;98914.69;;;8.85;96.08
80116;BME280;69423;47.608;19.366;2024-02-28T01:35:44;98909.91;;;8.80;96.42
80116;BME280;69423;47.608;19.366;2024-02-28T01:36:15;98916.22;;;8.79;96.59
80116;BME280;69423;47.608;19.366;2024-02-28T01:36:46;98915.38;;;8.79;96.69
80116;BME280;69423;47.608;19.366;2024-02-28T01:37:17;98913.56;;;8.79;96.51
80116;BME280;69423;47.608;19.366;2024-02-28T01:37:48;98914.38;;;8.80;96.51
80116;BME280;69423;47.608;19.366;2024-02-28T01:38:20;98923.34;;;8.79;96.91
80116;BME280;69423;47.608;19.366;2024-02-28T01:38:51;98918.69;;;8.81;96.57
80116;BME280;69423;47.608;19.366;2024-02-28T01:39:23;98907.59;;;8.77;96.44
80116;BME280;69423;47.608;19.366;2024-02-28T01:39:54;98916.22;;;8.79;96.47
80116;BME280;69423;47.608;19.366;2024-02-28T01:40:25;98920.69;;;8.79;96.53
80116;BME280;69423;47.608;19.366;2024-02-28T01:40:56;98919.06;;;8.78;96.55
80116;BME280;69423;47.608;19.366;2024-02-28T01:41:27;98919.72;;;8.80;96.52
80116;BME280;69423;47.608;19.366;2024-02-28T01:41:58;98923.03;;;8.82;96.73
80116;BME280;69423;47.608;19.366;2024-02-28T01:42:29;98924.66;;;8.83;96.73
80116;BME280;69423;47.608;19.366;2024-02-28T01:43:07;98921.84;;;8.84;96.44
80116;BME280;69423;47.608;19.366;2024-02-28T01:43:38;98921.03;;;8.84;96.37
80116;BME280;69423;47.608;19.366;2024-02-28T01:44:09;98925.50;;;8.83;96.37
80116;BME280;69423;47.608;19.366;2024-02-28T01:44:44;98916.03;;;8.81;96.14
80116;BME280;69423;47.608;19.366;2024-02-28T01:45:16;98921.84;;;8.84;96.21
80116;BME280;69423;47.608;19.366;2024-02-28T01:45:47;98916.53;;;8.84;96.41
80116;BME280;69423;47.608;19.366;2024-02-28T01:46:26;98918.53;;;8.82;96.38
80116;BME280;69423;47.608;19.366;2024-02-28T01:46:57;98913.03;;;8.84;96.26
80116;BME280;69423;47.608;19.366;2024-02-28T01:47:29;98924.00;;;8.81;96.26
80116;BME280;69423;47.608;19.366;2024-02-28T01:48:02;98922.00;;;8.83;96.39
80116;BME280;69423;47.608;19.366;2024-02-28T01:48:33;98920.69;;;8.79;96.47
80116;BME280;69423;47.608;19.366;2024-02-28T01:49:04;98919.72;;;8.80;95.86
80116;BME280;69423;47.608;19.366;2024-02-28T01:49:35;98916.03;;;8.81;95.96
80116;BME280;69423;47.608;19.366;2024-02-28T01:50:07;98922.00;;;8.83;95.50
80116;BME280;69423;47.608;19.366;2024-02-28T01:50:39;98910.38;;;8.84;95.54
80116;BME280;69423;47.608;19.366;2024-02-28T01:51:12;98918.19;;;8.85;95.49
80116;BME280;69423;47.608;19.366;2024-02-28T01:51:44;98907.06;;;8.82;95.35
80116;BME280;69423;47.608;19.366;2024-02-28T01:52:17;98916.88;;;8.81;94.87
80116;BME280;69423;47.608;19.366;2024-02-28T01:52:48;98913.69;;;8.86;95.14
80116;BME280;69423;47.608;19.366;2024-02-28T01:53:20;98918.00;;;8.87;94.94
80116;BME280;69423;47.608;19.366;2024-02-28T01:53:53;98916.88;;;8.81;94.89
80116;BME280;69423;47.608;19.366;2024-02-28T01:54:26;98919.88;;;8.78;94.97
80116;BME280;69423;47.608;19.366;2024-02-28T01:54:58;98921.03;;;8.84;94.95
80116;BME280;69423;47.608;19.366;2024-02-28T01:55:29;98917.84;;;8.88;94.63
80116;BME280;69423;47.608;19.366;2024-02-28T01:56:01;98913.22;;;8.82;94.63
80116;BME280;69423;47.608;19.366;2024-02-28T01:56:34;98925.50;;;8.83;94.51
80116;BME280;69423;47.608;19.366;2024-02-28T01:57:06;98916.69;;;8.83;94.74
80116;BME280;69423;47.608;19.366;2024-02-28T01:57:37;98925.84;;;8.80;94.96
80116;BME280;69423;47.608;19.366;2024-02-28T01:58:09;98925.50;;;8.83;94.75
80116;BME280;69423;47.608;19.366;2024-02-28T01:58:40;98927.50;;;8.81;94.88
80116;BME280;69423;47.608;19.366;2024-02-28T01:59:11;98926.34;;;8.84;95.13
80116;BME280;69423;47.608;19.366;2024-02-28T01:59:43;98909.06;;;8.80;95.13
80116;BME280;69423;47.608;19.366;2024-02-28T02:00:15;98925.03;;;8.80;95.20
80116;BME280;69423;47.608;19.366;2024-02-28T02:00:48;98928.50;;;8.80;95.07
80116;BME280;69423;47.608;19.366;2024-02-28T02:01:20;98927.50;;;8.81;94.89
80116;BME280;69423;47.608;19.366;2024-02-28T02:01:51;98928.19;;;8.83;94.71
80116;BME280;69423;47.608;19.366;2024-02-28T02:02:22;98929.97;;;8.83;95.25
80116;BME280;69423;47.608;19.366;2024-02-28T02:02:53;98919.34;;;8.83;95.21
80116;BME280;69423;47.608;19.366;2024-02-28T02:03:24;98929.97;;;8.83;94.23
80116;BME280;69423;47.608;19.366;2024-02-28T02:03:55;98923.69;;;8.84;94.39
80116;BME280;69423;47.608;19.366;2024-02-28T02:04:26;98935.66;;;8.80;94.18
80116;BME280;69423;47.608;19.366;2024-02-28T02:04:57;98936.47;;;8.80;94.29
80116;BME280;69423;47.608;19.366;2024-02-28T02:05:29;98929.53;;;8.79;94.49
80116;BME280;69423;47.608;19.366;2024-02-28T02:06:02;98932.19;;;8.79;94.13
80116;BME280;69423;47.608;19.366;2024-02-28T02:06:37;98934.47;;;8.82;93.87
80116;BME280;69423;47.608;19.366;2024-02-28T02:07:09;98932.84;;;8.81;93.71
80116;BME280;69423;47.608;19.366;2024-02-28T02:07:40;98939.97;;;8.81;93.72
80116;BME280;69423;47.608;19.366;2024-02-28T02:08:12;98932.19;;;8.79;93.72
80116;BME280;69423;47.608;19.366;2024-02-28T02:08:43;98938.31;;;8.80;94.24
80116;BME280;69423;47.608;19.366;2024-02-28T02:09:15;98939.31;;;8.79;93.99
80116;BME280;69423;47.608;19.366;2024-02-28T02:09:46;98938.31;;;8.80;93.75
80116;BME280;69423;47.608;19.366;2024-02-28T02:10:17;98929.69;;;8.78;93.50
80116;BME280;69423;47.608;19.366;2024-02-28T02:10:48;98935.97;;;8.77;93.46
80116;BME280;69423;47.608;19.366;2024-02-28T02:11:20;98931.69;;;8.76;93.63
80116;BME280;69423;47.608;19.366;2024-02-28T02:11:52;98936.66;;;8.70;93.77
80116;BME280;69423;47.608;19.366;2024-02-28T02:12:23;98933.03;;;8.71;93.88
80116;BME280;69423;47.608;19.366;2024-02-28T02:12:54;98942.84;;;8.71;93.39
80116;BME280;69423;47.608;19.366;2024-02-28T02:13:25;98941.00;;;8.71;93.61
80116;BME280;69423;47.608;19.366;2024-02-28T02:13:56;98935.53;;;8.73;93.70
80116;BME280;69423;47.608;19.366;2024-02-28T02:14:27;98935.16;;;8.76;93.51
80116;BME280;69423;47.608;19.366;2024-02-28T02:14:58;98935.16;;;8.76;93.45
80116;BME280;69423;47.608;19.366;2024-02-28T02:15:29;98940.31;;;8.78;92.98
80116;BME280;69423;47.608;19.366;2024-02-28T02:16:01;98932.19;;;8.79;92.59
80116;BME280;69423;47.608;19.366;2024-02-28T02:16:32;98935.97;;;8.77;92.66
80116;BME280;69423;47.608;19.366;2024-02-28T02:17:03;98924.53;;;8.76;92.88
80116;BME280;69423;47.608;19.366;2024-02-28T02:17:34;98935.31;;;8.75;92.57
80116;BME280;69423;47.608;19.366;2024-02-28T02:18:06;98931.84;;;8.74;92.22
80116;BME280;69423;47.608;19.366;2024-02-28T02:18:37;98937.31;;;8.73;92.63
80116;BME280;69423;47.608;19.366;2024-02-28T02:19:11;98934.88;;;8.71;93.24
80116;BME280;69423;47.608;19.366;2024-02-28T02:19:42;98939.81;;;8.74;92.61
80116;BME280;69423;47.608;19.366;2024-02-28T02:20:14;98919.06;;;8.69;92.71
80116;BME280;69423;47.608;19.366;2024-02-28T02:20:49;98925.72;;;8.74;92.73
80116;BME280;69423;47.608;19.366;2024-02-28T02:21:24;98940.47;;;8.76;91.91
80116;BME280;69423;47.608;19.366;2024-02-28T02:21:58;98934.66;;;8.73;92.58
80116;BME280;69423;47.608;19.366;2024-02-28T02:22:36;98944.16;;;8.75;92.46
80116;BME280;69423;47.608;19.366;2024-02-28T02:23:09;98938.84;;;8.75;92.49
80116;BME280;69423;47.608;19.366;2024-02-28T02:23:40;98934.50;;;8.74;92.37
80116;BME280;69423;47.608;19.366;2024-02-28T02:24:12;98938.00;;;8.75;92.57
80116;BME280;69423;47.608;19.366;2024-02-28T02:24:43;98938.00;;;8.75;92.47
80116;BME280;69423;47.608;19.366;2024-02-28T02:25:14;98941.00;;;8.71;92.72
80116;BME280;69423;47.608;19.366;2024-02-28T02:25:48;98930.53;;;8.70;93.04
80116;BME280;69423;47.608;19.366;2024-02-28T02:26:19;98940.00;;;8.73;92.53
80116;BME280;69423;47.608;19.366;2024-02-28T02:26:56;98943.50;;;8.73;92.51
80116;BME280;69423;47.608;19.366;2024-02-28T02:27:28;98935.03;;;8.69;92.96
80116;BME280;69423;47.608;19.366;2024-02-28T02:27:59;98939.53;;;8.69;92.73
80116;BME280;69423;47.608;19.366;2024-02-28T02:28:30;98939.31;;;8.70;92.92
80116;BME280;69423;47.608;19.366;2024-02-28T02:29:01;98941.16;;;8.70;92.87
80116;BME280;69423;47.608;19.366;2024-02-28T02:29:32;98937.84;;;8.68;93.43
80116;BME280;69423;47.608;19.366;2024-02-28T02:30:03;98937.03;;;8.67;93.11
80116;BME280;69423;47.608;19.366;2024-02-28T02:30:35;98938.50;;;8.70;92.90
80116;BME280;69423;47.608;19.366;2024-02-28T02:31:06;98939.31;;;8.70;93.09
80116;BME280;69423;47.608;19.366;2024-02-28T02:31:37;98935.19;;;8.68;92.98
80116;BME280;69423;47.608;19.366;2024-02-28T02:32:08;98932.53;;;8.68;92.58
80116;BME280;69423;47.608;19.366;2024-02-28T02:32:39;98925.91;;;8.64;92.69
80116;BME280;69423;47.608;19.366;2024-02-28T02:33:10;98938.66;;;8.68;92.43
80116;BME280;69423;47.608;19.366;2024-02-28T02:33:41;98940.50;;;8.68;92.52
80116;BME280;69423;47.608;19.366;2024-02-28T02:34:12;98942.34;;;8.67;92.30
80116;BME280;69423;47.608;19.366;2024-02-28T02:34:43;98945.16;;;8.66;92.43
80116;BME280;69423;47.608;19.366;2024-02-28T02:35:14;98940.66;;;8.66;92.23
80116;BME280;69423;47.608;19.366;2024-02-28T02:35:45;98944.84;;;8.69;92.30
80116;BME280;69423;47.608;19.366;2024-02-28T02:36:16;98943.16;;;8.68;92.45
80116;BME280;69423;47.608;19.366;2024-02-28T02:36:48;98947.00;;;8.65;92.44
80116;BME280;69423;47.608;19.366;2024-02-28T02:37:19;98935.72;;;8.63;92.42
80116;BME280;69423;47.608;19.366;2024-02-28T02:37:50;98946.34;;;8.63;93.09
80116;BME280;69423;47.608;19.366;2024-02-28T02:38:21;98944.50;;;8.64;92.74
80116;BME280;69423;47.608;19.366;2024-02-28T02:38:52;98937.88;;;8.60;93.16
80116;BME280;69423;47.608;19.366;2024-02-28T02:39:23;98938.03;;;8.58;93.03
80116;BME280;69423;47.608;19.366;2024-02-28T02:39:54;98932.03;;;8.64;92.97
80116;BME280;69423;47.608;19.366;2024-02-28T02:40:26;98949.66;;;8.65;92.78
80116;BME280;69423;47.608;19.366;2024-02-28T02:40:57;98945.97;;;8.66;92.49
80116;BME280;69423;47.608;19.366;2024-02-28T02:41:28;98934.69;;;8.64;92.92
80116;BME280;69423;47.608;19.366;2024-02-28T02:41:59;98947.31;;;8.62;92.56
80116;BME280;69423;47.608;19.366;2024-02-28T02:42:30;98944.66;;;8.62;92.57
80116;BME280;69423;47.608;19.366;2024-02-28T02:43:01;98946.66;;;8.60;92.45
80116;BME280;69423;47.608;19.366;2024-02-28T02:43:32;98951.97;;;8.60;92.61
80116;BME280;69423;47.608;19.366;2024-02-28T02:44:03;98945.03;;;8.59;92.45
80116;BME280;69423;47.608;19.366;2024-02-28T02:44:34;98954.19;;;8.57;92.78
80116;BME280;69423;47.608;19.366;2024-02-28T02:45:05;98945.19;;;8.58;92.50
80116;BME280;69423;47.608;19.366;2024-02-28T02:45:36;98941.72;;;8.57;92.54
80116;BME280;69423;47.608;19.366;2024-02-28T02:46:07;98950.66;;;8.56;92.67
80116;BME280;69423;47.608;19.366;2024-02-28T02:46:38;98950.66;;;8.56;92.75